Time;durP1;ratioP1;P1;durP2;ratioP2;P2;SDS_P1;SDS_P2;PMS_P1;PMS_P2;Temp;Humidity;BMP_temperature;BMP_pressure;BME280_temperature;BME280_humidity;BME280_pressure;Samples;Min_cycle;Max_cycle;Signal;HPM_P1;HPM_P2
2022/03/22 00:00:13;;;;;;;21.63;12.80;;;10.70;90.10;;;;;;5031578;28;20107;-75
2022/03/22 00:02:38;;;;;;;24.13;13.95;;;10.70;90.20;;;;;;5013901;28;20022;-75
2022/03/22 00:05:04;;;;;;;23.77;14.45;;;10.70;89.40;;;;;;5031487;28;20503;-77
2022/03/22 00:07:31;;;;;;;24.63;13.10;;;10.60;89.90;;;;;;5035069;28;20561;-77
2022/03/22 00:09:56;;;;;;;23.33;13.70;;;10.60;89.10;;;;;;5035646;28;20064;-74
2022/03/22 00:12:22;;;;;;;21.52;13.45;;;10.60;87.90;;;;;;5017322;28;20056;-76
2022/03/22 00:14:48;;;;;;;22.65;13.32;;;10.60;89.20;;;;;;5035606;28;20087;-75
2022/03/22 00:17:14;;;;;;;24.10;13.52;;;10.50;89.90;;;;;;5043548;22;20031;-84
2022/03/22 00:19:40;;;;;;;20.85;12.63;;;10.40;90.00;;;;;;5038274;28;20111;-82
2022/03/22 00:22:06;;;;;;;23.23;12.35;;;10.40;89.10;;;;;;5021630;28;20021;-83
2022/03/22 00:24:32;;;;;;;23.05;13.30;;;10.40;87.40;;;;;;5021264;28;20414;-81
2022/03/22 00:26:57;;;;;;;20.50;12.60;;;10.30;89.30;;;;;;5021958;28;20057;-83
2022/03/22 00:29:23;;;;;;;24.80;13.13;;;10.20;90.90;;;;;;5038808;28;20057;-83
2022/03/22 00:31:49;;;;;;;20.25;13.10;;;10.10;91.60;;;;;;5021749;28;20623;-83
2022/03/22 00:34:14;;;;;;;23.55;12.95;;;10.00;91.00;;;;;;5039057;28;20026;-84
2022/03/22 00:36:41;;;;;;;20.83;12.98;;;10.00;90.60;;;;;;5021212;28;20029;-82
2022/03/22 00:39:07;;;;;;;23.40;12.38;;;10.10;90.10;;;;;;5021475;28;20022;-84
2022/03/22 00:41:33;;;;;;;20.98;12.32;;;10.10;88.20;;;;;;5040275;28;20346;-83
2022/03/22 00:43:59;;;;;;;19.85;12.77;;;10.20;87.10;;;;;;5026179;28;20017;-84
2022/03/22 00:46:25;;;;;;;22.98;12.70;;;10.20;86.70;;;;;;5041408;28;20368;-81
2022/03/22 00:48:50;;;;;;;22.10;11.77;;;10.10;86.90;;;;;;5058996;28;20025;-81
2022/03/22 00:51:16;;;;;;;19.75;11.98;;;10.10;86.40;;;;;;5058863;28;20032;-82
2022/03/22 00:53:42;;;;;;;22.90;12.93;;;10.00;88.90;;;;;;5058425;28;20025;-83
2022/03/22 00:56:08;;;;;;;23.15;13.43;;;9.90;90.80;;;;;;5040939;28;20025;-82
2022/03/22 00:58:34;;;;;;;21.75;13.18;;;9.70;91.40;;;;;;5040536;28;20491;-81
2022/03/22 01:01:01;;;;;;;19.40;12.30;;;9.60;95.70;;;;;;5058620;28;20033;-82
2022/03/22 01:03:28;;;;;;;20.52;12.70;;;9.40;99.50;;;;;;5059136;28;20032;-82
2022/03/22 01:05:54;;;;;;;22.95;12.07;;;9.20;99.90;;;;;;5040971;28;20102;-83
2022/03/22 01:08:20;;;;;;;19.02;11.65;;;9.00;99.90;;;;;;5040673;28;20103;-83
2022/03/22 01:10:52;;;;;;;23.45;12.77;;;8.70;99.90;;;;;;5040574;28;20024;-82
2022/03/22 01:13:19;;;;;;;23.38;13.70;;;8.50;99.90;;;;;;5040437;28;20025;-83
2022/03/22 01:15:44;;;;;;;20.48;12.80;;;8.40;99.90;;;;;;5040092;28;20025;-83
2022/03/22 01:18:12;;;;;;;22.38;13.98;;;8.40;99.90;;;;;;5039913;28;20534;-83
2022/03/22 01:20:41;;;;;;;26.10;13.43;;;8.60;99.90;;;;;;5040077;28;20449;-81
2022/03/22 01:23:09;;;;;;;25.35;12.77;;;8.70;99.90;;;;;;5040845;28;20404;-84
2022/03/22 01:25:39;;;;;;;21.35;13.13;;;8.60;99.90;;;;;;5059155;28;20059;-81
2022/03/22 01:28:09;;;;;;;24.30;13.00;;;8.70;99.90;;;;;;5040355;28;20025;-82
2022/03/22 01:30:36;;;;;;;23.15;12.15;;;8.60;99.90;;;;;;5059015;28;20025;-85
2022/03/22 01:33:02;;;;;;;21.48;13.30;;;8.40;99.90;;;;;;5041631;28;20097;-85
2022/03/22 01:35:28;;;;;;;21.98;13.23;;;8.30;99.90;;;;;;5050161;28;20025;-84
2022/03/22 01:37:55;;;;;;;20.25;12.05;;;8.10;99.90;;;;;;5044860;28;20083;-85
2022/03/22 01:40:24;;;;;;;25.38;13.45;;;8.00;99.90;;;;;;5040743;28;20021;-84
2022/03/22 01:42:53;;;;;;;23.67;13.02;;;7.80;99.90;;;;;;5040867;28;20507;-84
2022/03/22 01:45:19;;;;;;;20.30;12.60;;;7.60;99.90;;;;;;5024365;28;20030;-84
2022/03/22 01:47:46;;;;;;;25.40;12.65;;;7.30;99.90;;;;;;5021297;28;20033;-82
2022/03/22 01:50:14;;;;;;;22.27;13.05;;;7.10;99.90;;;;;;5021193;28;20089;-85
2022/03/22 01:52:44;;;;;;;24.05;13.25;;;6.80;99.90;;;;;;5020770;28;20114;-83
2022/03/22 01:55:12;;;;;;;23.90;13.82;;;6.70;99.90;;;;;;5019631;28;20112;-83
2022/03/22 01:57:38;;;;;;;23.02;13.60;;;6.70;99.90;;;;;;5019978;28;20112;-82
2022/03/22 02:00:08;;;;;;;20.15;13.32;;;6.60;99.90;;;;;;5018715;28;20100;-83
2022/03/22 02:08:10;;;;;;;26.92;15.75;;;6.50;99.90;;;;;;5038612;28;20029;-83
2022/03/22 02:10:37;;;;;;;27.42;14.43;;;6.60;99.90;;;;;;5019870;28;20093;-83
2022/03/22 02:13:03;;;;;;;23.05;14.27;;;6.60;99.90;;;;;;5019872;28;20121;-82
2022/03/22 02:15:29;;;;;;;24.90;14.77;;;6.60;99.90;;;;;;5019054;28;20075;-84
2022/03/22 02:17:55;;;;;;;26.05;14.55;;;6.80;99.90;;;;;;5037148;28;20034;-85
2022/03/22 02:20:21;;;;;;;28.17;14.68;;;6.70;99.90;;;;;;5038723;28;20072;-84
2022/03/22 02:23:06;;;;;;;23.17;13.98;;;6.50;99.90;;;;;;5019953;28;20026;-83
2022/03/22 02:25:35;;;;;;;24.00;14.02;;;6.50;99.90;;;;;;5020124;28;20037;-84
2022/03/22 02:28:03;;;;;;;22.42;14.32;;;6.40;99.90;;;;;;5019673;28;20112;-86
2022/03/22 02:30:29;;;;;;;23.52;14.98;;;6.30;99.90;;;;;;5036247;28;20060;-81
2022/03/22 02:32:59;;;;;;;25.05;14.77;;;6.20;99.90;;;;;;5018033;28;20029;-81
2022/03/22 02:35:26;;;;;;;24.73;13.75;;;6.20;99.90;;;;;;5017610;28;20048;-84
2022/03/22 02:37:52;;;;;;;21.83;13.40;;;6.30;99.90;;;;;;5017093;28;20013;-81
2022/03/22 02:40:18;;;;;;;24.35;14.90;;;6.20;99.90;;;;;;5017621;28;20021;-81
2022/03/22 02:42:49;;;;;;;21.25;13.95;;;6.10;99.90;;;;;;5017541;28;20021;-83
2022/03/22 02:45:15;;;;;;;26.20;14.52;;;6.00;99.90;;;;;;5032866;28;20025;-82
2022/03/22 02:47:42;;;;;;;23.08;13.48;;;5.90;99.90;;;;;;5037248;28;20154;-83
2022/03/22 02:50:09;;;;;;;26.65;15.27;;;5.80;99.90;;;;;;5036517;28;20025;-83
2022/03/22 02:52:39;;;;;;;27.35;14.80;;;5.80;99.90;;;;;;5036754;28;20053;-81
2022/03/22 02:55:06;;;;;;;23.38;14.32;;;5.80;99.90;;;;;;5054550;28;20116;-81
2022/03/22 02:57:36;;;;;;;24.08;13.85;;;5.80;99.90;;;;;;5036340;28;20453;-82
2022/03/22 03:00:06;;;;;;;25.20;15.13;;;5.80;99.90;;;;;;5036511;28;20066;-83
2022/03/22 03:02:32;;;;;;;23.80;13.52;;;5.70;99.90;;;;;;5054242;28;20060;-84
2022/03/22 03:04:59;;;;;;;28.08;15.10;;;5.60;99.90;;;;;;5036109;28;20021;-84
2022/03/22 03:07:24;;;;;;;24.75;14.40;;;5.60;99.90;;;;;;5053848;28;20103;-81
2022/03/22 03:09:50;;;;;;;26.25;14.35;;;5.60;99.90;;;;;;5035692;28;20122;-81
2022/03/22 03:12:16;;;;;;;23.02;13.95;;;5.60;99.90;;;;;;5053824;28;20043;-80
2022/03/22 03:14:43;;;;;;;25.98;14.40;;;5.50;99.90;;;;;;5053327;28;20057;-81
2022/03/22 03:17:11;;;;;;;24.35;13.88;;;5.50;99.90;;;;;;5035351;28;20032;-80
2022/03/22 03:19:37;;;;;;;22.00;13.52;;;5.30;99.90;;;;;;5034917;28;20035;-81
2022/03/22 03:22:05;;;;;;;24.10;14.82;;;5.30;99.90;;;;;;5053203;28;20025;-83
2022/03/22 03:24:32;;;;;;;24.23;14.75;;;5.20;99.90;;;;;;5037053;28;20021;-85
2022/03/22 03:26:58;;;;;;;23.50;13.98;;;5.20;99.90;;;;;;5037571;28;20107;-84
2022/03/22 03:29:24;;;;;;;21.90;14.05;;;5.10;99.90;;;;;;5037461;28;20028;-84
2022/03/22 03:31:50;;;;;;;26.40;15.27;;;5.00;99.90;;;;;;5037591;28;20036;-83
2022/03/22 03:34:17;;;;;;;22.50;13.75;;;5.00;99.90;;;;;;5037532;28;20074;-82
2022/03/22 03:36:44;;;;;;;23.17;14.27;;;5.10;99.90;;;;;;5046751;28;20036;-82
2022/03/22 03:39:11;;;;;;;26.15;14.77;;;5.00;99.90;;;;;;5048199;28;20025;-83
2022/03/22 03:41:57;;;;;;;25.52;14.43;;;4.90;99.90;;;;;;5057737;28;20340;-83
2022/03/22 03:47:12;;;;;;;29.10;16.20;;;4.90;99.90;;;;;;5035086;28;20119;-81
2022/03/22 03:49:42;;;;;;;29.17;16.05;;;4.90;99.90;;;;;;5017590;28;20496;-82
2022/03/22 03:52:09;;;;;;;27.52;15.32;;;4.90;99.90;;;;;;5017262;28;20029;-84
2022/03/22 03:54:37;;;;;;;24.85;15.20;;;4.80;99.90;;;;;;5016980;28;20029;-82
2022/03/22 03:57:03;;;;;;;22.85;14.25;;;4.80;99.90;;;;;;5017480;28;20029;-82
2022/03/22 03:59:29;;;;;;;23.60;15.20;;;4.80;99.90;;;;;;5017281;28;20087;-82
2022/03/22 04:01:54;;;;;;;28.17;15.05;;;4.60;99.90;;;;;;5017634;28;20022;-82
2022/03/22 04:04:20;;;;;;;28.13;14.88;;;4.60;99.90;;;;;;5017301;28;20460;-82
2022/03/22 04:06:47;;;;;;;28.05;15.77;;;4.50;99.90;;;;;;5018046;28;20034;-85
2022/03/22 04:09:14;;;;;;;26.48;14.75;;;4.50;99.90;;;;;;5017487;28;20048;-83
2022/03/22 04:11:40;;;;;;;31.27;15.57;;;4.50;99.90;;;;;;5017883;28;20124;-84
2022/03/22 04:14:07;;;;;;;29.58;15.73;;;4.50;99.90;;;;;;5035429;28;20452;-85
2022/03/22 04:16:34;;;;;;;24.67;15.65;;;4.40;99.90;;;;;;5018582;28;20385;-83
2022/03/22 04:19:00;;;;;;;29.00;16.67;;;4.40;99.90;;;;;;5036993;28;20538;-85
2022/03/22 04:21:25;;;;;;;25.85;15.05;;;4.40;99.90;;;;;;5018456;28;20064;-83
2022/03/22 04:23:51;;;;;;;30.90;16.42;;;4.30;99.90;;;;;;5036144;28;20425;-83
2022/03/22 04:26:17;;;;;;;28.50;15.60;;;4.30;99.90;;;;;;5017783;28;20091;-84
2022/03/22 04:34:11;;;;;;;32.20;18.17;;;4.50;99.90;;;;;;5036195;28;20065;-84
2022/03/22 04:36:37;;;;;;;32.92;18.80;;;4.60;99.90;;;;;;5036177;28;20033;-84
2022/03/22 04:39:04;;;;;;;33.85;18.08;;;4.60;99.90;;;;;;5018295;28;20038;-84
2022/03/22 04:41:29;;;;;;;31.38;17.60;;;4.60;99.90;;;;;;5045735;28;20044;-82
2022/03/22 04:43:55;;;;;;;32.45;17.83;;;4.60;99.90;;;;;;5050704;28;20373;-84
2022/03/22 04:46:20;;;;;;;32.38;18.05;;;4.60;99.90;;;;;;5056574;28;20025;-82
2022/03/22 04:48:46;;;;;;;31.95;17.15;;;4.60;99.90;;;;;;5037564;28;20357;-82
2022/03/22 04:56:48;;;;;;;34.53;19.92;;;4.50;99.90;;;;;;5067638;28;20044;-84
2022/03/22 04:59:19;;;;;;;35.63;18.75;;;4.40;99.90;;;;;;5049524;28;20127;-84
2022/03/22 05:01:45;;;;;;;32.67;18.35;;;4.40;99.90;;;;;;5052068;28;20045;-82
2022/03/22 05:04:11;;;;;;;32.25;18.48;;;4.40;99.90;;;;;;5043245;28;20393;-82
2022/03/22 05:06:40;;;;;;;36.85;17.92;;;4.40;99.90;;;;;;5043128;28;20489;-81
2022/03/22 05:09:06;;;;;;;31.25;18.45;;;4.30;99.90;;;;;;5043624;28;20025;-84
2022/03/22 05:11:32;;;;;;;35.90;18.15;;;4.20;99.90;;;;;;5042894;28;20461;-84
2022/03/22 05:13:58;;;;;;;34.67;18.90;;;4.10;99.90;;;;;;5042485;28;20056;-83
2022/03/22 05:16:24;;;;;;;37.92;18.60;;;4.00;99.90;;;;;;5042664;28;20394;-83
2022/03/22 05:18:50;;;;;;;33.80;17.00;;;4.00;99.90;;;;;;5041632;28;20035;-85
2022/03/22 05:21:18;;;;;;;37.85;19.30;;;3.80;99.90;;;;;;5040947;28;20025;-84
2022/03/22 05:23:45;;;;;;;37.05;18.15;;;3.80;99.90;;;;;;5045566;28;20101;-83
2022/03/22 05:26:12;;;;;;;36.17;18.90;;;3.80;99.90;;;;;;5064788;28;20021;-83
2022/03/22 05:28:38;;;;;;;31.70;17.75;;;3.80;99.90;;;;;;5045223;28;20377;-83
2022/03/22 05:31:05;;;;;;;37.80;18.02;;;3.80;99.90;;;;;;5049600;28;20036;-83
2022/03/22 05:33:31;;;;;;;32.22;19.42;;;3.80;99.90;;;;;;5056969;28;20029;-81
2022/03/22 05:35:58;;;;;;;40.40;19.85;;;3.70;99.90;;;;;;5046884;28;20072;-83
2022/03/22 05:38:25;;;;;;;34.10;18.15;;;3.70;99.90;;;;;;5049273;28;20029;-82
2022/03/22 05:40:53;;;;;;;37.42;20.08;;;3.70;99.90;;;;;;5056608;28;20021;-81
2022/03/22 05:43:18;;;;;;;36.08;19.13;;;3.70;99.90;;;;;;5061376;28;20358;-81
2022/03/22 05:45:50;;;;;;;29.10;17.20;;;3.70;99.90;;;;;;5020251;28;20041;-81
2022/03/22 05:48:20;;;;;;;33.92;19.52;;;3.70;99.90;;;;;;5019118;28;20032;-84
2022/03/22 05:50:46;;;;;;;40.90;20.85;;;3.70;99.90;;;;;;5018955;28;20037;-81
2022/03/22 05:53:13;;;;;;;32.05;19.35;;;3.70;99.90;;;;;;5019165;28;20142;-82
2022/03/22 05:55:41;;;;;;;37.38;18.67;;;3.80;99.90;;;;;;5019894;28;20021;-83
2022/03/22 05:58:07;;;;;;;30.65;17.42;;;3.80;99.90;;;;;;5038415;28;20047;-83
2022/03/22 06:00:34;;;;;;;36.70;18.75;;;3.80;99.90;;;;;;5019391;28;20017;-84
2022/03/22 06:03:00;;;;;;;35.50;18.77;;;3.90;99.90;;;;;;5020278;28;20021;-82
2022/03/22 06:05:30;;;;;;;39.85;20.45;;;4.00;99.90;;;;;;5020429;28;20025;-82
2022/03/22 06:07:57;;;;;;;31.42;17.17;;;4.10;99.90;;;;;;5020552;28;20088;-81
2022/03/22 06:10:23;;;;;;;41.83;18.05;;;4.20;99.90;;;;;;5020995;28;20401;-83
2022/03/22 06:12:51;;;;;;;35.55;18.55;;;4.30;99.90;;;;;;5020681;28;20022;-81
2022/03/22 06:15:22;;;;;;;38.05;18.65;;;4.40;99.90;;;;;;5021578;28;20018;-84
2022/03/22 06:18:00;;;;;;;33.88;18.42;;;4.50;99.90;;;;;;5023195;28;20029;-84
2022/03/22 06:20:34;;;;;;;32.25;17.85;;;4.70;99.90;;;;;;5040713;28;20346;-81
2022/03/22 06:23:02;;;;;;;37.75;17.80;;;4.80;99.90;;;;;;5020018;28;20507;-81
2022/03/22 06:25:28;;;;;;;38.10;18.80;;;5.00;99.90;;;;;;5019959;28;20017;-81
2022/03/22 06:27:56;;;;;;;37.83;18.35;;;5.20;99.90;;;;;;5020003;28;20029;-83
2022/03/22 06:30:23;;;;;;;33.80;17.23;;;5.40;99.90;;;;;;5040195;28;20029;-86
2022/03/22 06:32:58;;;;;;;29.88;16.02;;;5.60;99.90;;;;;;5025613;28;20385;-82
2022/03/22 06:35:26;;;;;;;27.40;15.73;;;5.80;99.90;;;;;;5044260;28;20029;-85
2022/03/22 06:37:54;;;;;;;31.02;14.98;;;6.10;99.90;;;;;;5025012;28;20021;-83
2022/03/22 06:40:22;;;;;;;32.53;16.55;;;6.40;99.90;;;;;;5025576;28;20397;-83
2022/03/22 06:42:48;;;;;;;28.30;15.25;;;6.70;99.90;;;;;;5024504;28;20026;-87
2022/03/22 06:45:14;;;;;;;19.88;13.57;;;7.00;99.90;;;;;;5042445;28;20036;-85
2022/03/22 06:47:41;;;;;;;27.27;14.85;;;7.30;99.90;;;;;;5064095;28;20084;-83
2022/03/22 06:50:10;;;;;;;26.58;14.75;;;7.50;99.90;;;;;;5047156;28;20036;-85
2022/03/22 06:52:36;;;;;;;27.50;14.68;;;7.70;99.90;;;;;;5067378;28;20021;-85
2022/03/22 06:55:04;;;;;;;23.58;14.07;;;8.00;99.90;;;;;;5045788;28;20060;-84
2022/03/22 06:57:31;;;;;;;21.58;13.35;;;8.30;99.90;;;;;;5043062;28;20025;-84
2022/03/22 07:00:00;;;;;;;26.23;14.55;;;8.50;99.90;;;;;;5043302;28;20044;-84
2022/03/22 07:02:27;;;;;;;23.83;13.70;;;8.80;99.90;;;;;;5045093;28;20112;-84
2022/03/22 07:04:52;;;;;;;28.08;14.93;;;9.10;99.90;;;;;;5063890;28;20028;-83
2022/03/22 07:07:18;;;;;;;26.20;15.38;;;9.40;99.90;;;;;;5044305;28;20029;-84
2022/03/22 07:09:45;;;;;;;31.58;15.73;;;9.50;99.90;;;;;;5062346;28;20032;-83
2022/03/22 07:12:11;;;;;;;32.30;17.52;;;9.80;99.90;;;;;;5044096;28;20044;-83
2022/03/22 07:14:40;;;;;;;35.83;15.60;;;10.00;99.90;;;;;;5044825;28;20040;-83
2022/03/22 07:17:07;;;;;;;31.67;16.38;;;10.20;99.90;;;;;;5045335;28;20025;-82
2022/03/22 07:19:34;;;;;;;32.38;17.30;;;10.50;99.90;;;;;;5062489;28;20024;-83
2022/03/22 07:22:00;;;;;;;34.05;16.90;;;10.80;99.90;;;;;;5043362;28;20047;-83
2022/03/22 07:24:26;;;;;;;29.02;16.00;;;11.00;99.90;;;;;;5043698;28;20021;-83
2022/03/22 07:26:51;;;;;;;27.67;16.83;;;11.30;99.90;;;;;;5043168;28;20033;-83
2022/03/22 07:29:17;;;;;;;29.33;16.73;;;11.50;99.90;;;;;;5042941;28;20057;-82
2022/03/22 07:31:44;;;;;;;26.77;15.38;;;11.80;99.90;;;;;;5044552;28;20481;-83
2022/03/22 07:34:21;;;;;;;30.77;16.70;;;12.00;95.50;;;;;;5046666;28;20028;-83
2022/03/22 07:36:56;;;;;;;30.88;15.18;;;12.30;83.10;;;;;;5054100;28;20020;-84
2022/03/22 07:39:23;;;;;;;31.20;15.82;;;12.60;80.40;;;;;;5052235;28;20025;-83
2022/03/22 07:41:49;;;;;;;30.55;15.98;;;12.90;73.20;;;;;;5050474;28;20017;-84
2022/03/22 07:44:15;;;;;;;29.98;16.08;;;13.20;72.40;;;;;;5040464;28;20044;-84
2022/03/22 07:46:43;;;;;;;25.65;14.68;;;13.30;69.30;;;;;;5028458;28;20040;-84
2022/03/22 07:54:43;;;;;;;28.30;15.10;;;13.90;68.00;;;;;;5047042;28;20039;-84
2022/03/22 07:57:12;;;;;;;30.83;14.45;;;14.20;67.40;;;;;;5028090;28;20033;-83
2022/03/22 07:59:40;;;;;;;26.38;14.73;;;14.40;66.10;;;;;;5028473;28;20083;-85
2022/03/22 08:02:13;;;;;;;31.95;14.38;;;14.60;63.90;;;;;;5027705;28;20032;-82
2022/03/22 08:04:39;;;;;;;30.02;15.10;;;14.90;60.20;;;;;;5025441;28;20036;-85
2022/03/22 08:07:04;;;;;;;23.88;13.35;;;15.00;60.60;;;;;;5024958;28;20025;-83
2022/03/22 08:09:30;;;;;;;27.77;15.55;;;15.20;61.70;;;;;;5024860;28;20469;-84
2022/03/22 08:11:59;;;;;;;25.92;14.23;;;15.30;59.00;;;;;;5024646;28;20504;-84
2022/03/22 08:14:25;;;;;;;31.42;15.30;;;15.40;59.10;;;;;;5023496;28;20049;-84
2022/03/22 08:16:52;;;;;;;24.13;14.93;;;15.50;58.90;;;;;;5022881;28;20034;-84
2022/03/22 08:19:20;;;;;;;25.13;13.98;;;15.70;58.30;;;;;;5023292;28;20104;-84
2022/03/22 08:21:49;;;;;;;30.25;16.20;;;15.80;57.50;;;;;;5024163;28;20029;-84
2022/03/22 08:24:15;;;;;;;23.65;13.80;;;15.90;56.20;;;;;;5023784;28;20021;-85
2022/03/22 08:26:42;;;;;;;26.30;14.38;;;16.10;57.10;;;;;;5024607;28;20022;-83
2022/03/22 08:29:08;;;;;;;22.15;14.77;;;16.40;56.00;;;;;;5045182;28;20419;-83
2022/03/22 08:31:35;;;;;;;29.85;14.98;;;16.60;56.10;;;;;;5028939;28;20030;-83
2022/03/22 08:34:02;;;;;;;19.27;13.73;;;16.80;54.70;;;;;;5028753;28;20025;-82
2022/03/22 08:36:37;;;;;;;20.65;14.38;;;17.30;53.70;;;;;;5027997;28;20037;-84
2022/03/22 08:39:10;;;;;;;23.58;14.65;;;17.50;52.50;;;;;;5028969;28;20022;-83
2022/03/22 08:41:37;;;;;;;18.30;12.68;;;17.60;51.90;;;;;;5028585;28;20022;-82
2022/03/22 08:44:08;;;;;;;31.92;15.18;;;17.70;52.10;;;;;;5036301;28;20029;-83
2022/03/22 08:46:36;;;;;;;21.75;14.45;;;17.80;50.80;;;;;;5049419;28;20036;-82
2022/03/22 08:49:05;;;;;;;18.55;13.07;;;18.00;51.90;;;;;;5048611;28;20056;-83
2022/03/22 08:51:31;;;;;;;20.40;14.02;;;18.40;51.00;;;;;;5049450;28;20560;-83
2022/03/22 08:54:02;;;;;;;20.92;13.50;;;18.40;49.50;;;;;;5049007;28;20025;-84
2022/03/22 08:56:32;;;;;;;21.00;13.77;;;18.50;50.20;;;;;;5048417;28;20476;-84
2022/03/22 08:58:58;;;;;;;20.92;13.30;;;18.50;49.80;;;;;;5048252;28;20025;-83
2022/03/22 09:01:24;;;;;;;19.13;13.63;;;18.60;49.40;;;;;;5049686;28;20111;-83
2022/03/22 09:06:38;;;;;;;20.73;13.70;;;18.80;48.40;;;;;;5066115;28;20075;-83
2022/03/22 09:09:09;;;;;;;18.45;12.75;;;18.70;48.00;;;;;;5048482;28;20398;-84
2022/03/22 09:12:07;;;;;;;18.42;13.20;;;18.80;48.90;;;;;;5052913;28;20409;-84
2022/03/22 09:14:54;;;;;;;18.15;11.93;;;18.90;48.00;;;;;;5047861;28;20416;-85
2022/03/22 09:17:25;;;;;;;23.90;13.15;;;19.10;47.40;;;;;;5053433;28;20025;-84
2022/03/22 09:20:03;;;;;;;22.27;13.23;;;19.20;45.90;;;;;;5054657;28;20035;-84
2022/03/22 09:22:35;;;;;;;21.80;13.65;;;19.20;45.70;;;;;;5050221;28;20035;-83
2022/03/22 09:25:03;;;;;;;21.23;13.32;;;19.10;46.70;;;;;;5047936;28;20029;-83
2022/03/22 09:27:49;;;;;;;19.83;12.75;;;19.30;45.90;;;;;;5050156;28;20029;-83
2022/03/22 09:30:16;;;;;;;21.88;12.90;;;19.40;45.90;;;;;;5048464;28;20040;-82
2022/03/22 09:32:44;;;;;;;19.05;12.30;;;19.50;45.70;;;;;;5053268;28;20088;-85
2022/03/22 09:35:19;;;;;;;20.58;13.30;;;19.50;45.10;;;;;;5054036;28;20021;-82
2022/03/22 09:37:48;;;;;;;19.90;12.80;;;19.50;45.00;;;;;;5058614;28;20037;-84
2022/03/22 09:40:19;;;;;;;18.23;12.30;;;19.50;45.30;;;;;;5057338;28;20021;-84
2022/03/22 09:42:48;;;;;;;19.20;13.68;;;19.60;44.90;;;;;;5043722;28;20088;-84
2022/03/22 09:45:24;;;;;;;17.48;13.30;;;19.50;44.60;;;;;;5045223;28;20025;-84
2022/03/22 09:47:50;;;;;;;22.88;13.82;;;19.60;45.20;;;;;;5023480;28;20390;-83
2022/03/22 09:50:19;;;;;;;21.05;13.07;;;19.60;44.30;;;;;;5025099;28;20036;-84
2022/03/22 09:52:45;;;;;;;19.42;12.07;;;19.60;45.10;;;;;;5026822;28;20029;-85
2022/03/22 09:55:13;;;;;;;17.70;13.02;;;19.80;45.60;;;;;;5046986;28;20052;-84
2022/03/22 09:57:39;;;;;;;22.25;13.25;;;20.10;44.80;;;;;;5046328;28;20124;-86
2022/03/22 10:00:07;;;;;;;20.80;12.98;;;20.10;43.00;;;;;;5027284;28;20465;-86
2022/03/22 10:02:35;;;;;;;19.30;12.55;;;20.10;42.90;;;;;;5029191;28;20056;-84
2022/03/22 10:05:02;;;;;;;18.77;11.90;;;20.30;43.20;;;;;;5050730;28;20085;-85
2022/03/22 10:07:28;;;;;;;18.70;11.90;;;20.50;43.30;;;;;;5048467;28;20022;-85
2022/03/22 10:09:59;;;;;;;17.67;11.48;;;20.60;42.10;;;;;;5042362;28;20451;-84
2022/03/22 10:12:35;;;;;;;17.20;11.75;;;20.60;41.90;;;;;;5042863;28;20045;-85
2022/03/22 10:15:16;;;;;;;14.85;11.40;;;20.70;42.00;;;;;;5041544;28;20052;-84
2022/03/22 10:17:43;;;;;;;17.17;11.05;;;20.80;41.90;;;;;;5041741;28;20060;-84
2022/03/22 10:20:23;;;;;;;16.67;11.77;;;20.90;42.00;;;;;;5046233;28;20062;-84
2022/03/22 10:22:56;;;;;;;15.68;11.85;;;20.80;41.00;;;;;;5032612;28;20027;-84
2022/03/22 10:25:26;;;;;;;14.85;11.68;;;20.80;41.60;;;;;;5049528;28;20085;-83
2022/03/22 10:27:56;;;;;;;14.63;11.15;;;20.80;41.50;;;;;;5030085;28;20049;-86
2022/03/22 10:30:22;;;;;;;18.60;11.35;;;21.00;41.70;;;;;;5041225;28;20029;-87
2022/03/22 10:32:51;;;;;;;14.68;10.57;;;21.00;41.20;;;;;;5023442;28;20029;-83
2022/03/22 10:35:17;;;;;;;16.17;11.10;;;21.30;41.90;;;;;;5025051;28;20022;-85
2022/03/22 10:37:47;;;;;;;18.35;10.15;;;21.40;39.50;;;;;;5043595;28;20036;-86
2022/03/22 10:40:45;;;;;;;16.38;9.35;;;21.50;40.30;;;;;;5022104;28;20025;-85
2022/03/22 10:43:22;;;;;;;18.05;10.77;;;21.20;40.40;;;;;;5008824;28;20441;-85
2022/03/22 10:46:04;;;;;;;18.15;11.25;;;21.00;41.10;;;;;;5020641;28;20030;-83
2022/03/22 10:48:34;;;;;;;15.23;10.35;;;20.90;41.20;;;;;;5021718;28;20041;-83
2022/03/22 10:51:01;;;;;;;14.27;9.80;;;21.00;41.80;;;;;;5004845;28;20434;-82
2022/03/22 10:53:29;;;;;;;17.13;10.07;;;20.90;40.70;;;;;;5020913;28;20026;-84
2022/03/22 10:55:57;;;;;;;19.98;10.50;;;21.10;40.40;;;;;;5021796;28;20061;-85
2022/03/22 10:58:27;;;;;;;17.55;10.80;;;21.00;41.20;;;;;;5003867;28;20172;-84
2022/03/22 11:00:54;;;;;;;17.70;11.13;;;20.90;41.50;;;;;;5021257;28;20025;-83
2022/03/22 11:03:20;;;;;;;18.80;11.18;;;20.90;41.30;;;;;;5003644;28;20119;-86
2022/03/22 11:05:50;;;;;;;17.48;10.80;;;20.80;41.60;;;;;;5002732;28;20030;-82
2022/03/22 11:08:21;;;;;;;15.82;10.02;;;20.60;40.90;;;;;;5002742;28;20026;-83
2022/03/22 11:10:48;;;;;;;17.00;10.50;;;20.60;42.40;;;;;;5002349;28;20030;-84
2022/03/22 11:13:14;;;;;;;13.30;9.80;;;20.80;42.30;;;;;;5019836;28;20022;-83
2022/03/22 11:15:43;;;;;;;19.67;10.75;;;21.00;42.60;;;;;;5002453;28;20043;-84
2022/03/22 11:18:10;;;;;;;16.17;9.85;;;21.30;41.80;;;;;;5020161;28;20036;-83
2022/03/22 11:20:35;;;;;;;17.45;10.18;;;21.30;41.80;;;;;;5020106;28;20040;-85
2022/03/22 11:23:01;;;;;;;15.10;10.45;;;21.40;41.10;;;;;;5002865;28;20486;-85
2022/03/22 11:25:35;;;;;;;15.38;9.82;;;21.40;42.00;;;;;;5002880;28;20026;-84
2022/03/22 11:28:10;;;;;;;15.35;10.77;;;21.30;40.90;;;;;;5029298;28;20022;-86
2022/03/22 11:30:39;;;;;;;19.40;10.83;;;21.10;41.00;;;;;;5022173;28;20018;-84
2022/03/22 11:35:58;;;;;;;17.70;10.02;;;20.80;41.00;;;;;;5021683;28;20065;-85
2022/03/22 11:38:49;;;;;;;18.00;9.88;;;20.60;41.60;;;;;;5024371;28;20037;-85
2022/03/22 11:44:24;;;;;;;15.35;9.55;;;21.00;41.20;;;;;;5036408;28;20028;-83
2022/03/22 11:47:15;;;;;;;16.50;8.65;;;21.10;41.20;;;;;;5061276;28;20092;-84
2022/03/22 11:49:49;;;;;;;16.38;9.13;;;21.20;40.20;;;;;;5041951;28;20021;-85
2022/03/22 11:52:16;;;;;;;16.00;8.73;;;21.10;40.50;;;;;;5060161;28;20095;-82
2022/03/22 11:54:59;;;;;;;17.75;7.90;;;20.80;39.80;;;;;;5060671;28;20033;-86
2022/03/22 11:57:28;;;;;;;16.60;9.18;;;20.90;40.10;;;;;;5042218;28;20086;-83
2022/03/22 11:59:54;;;;;;;16.77;9.07;;;20.80;40.30;;;;;;5041483;28;20021;-82
2022/03/22 12:02:34;;;;;;;22.83;9.40;;;21.10;40.30;;;;;;5060494;28;20096;-86
2022/03/22 12:05:01;;;;;;;20.00;8.88;;;21.10;39.90;;;;;;5054159;28;20041;-83
2022/03/22 12:07:30;;;;;;;15.63;8.68;;;21.20;40.30;;;;;;5076099;28;20516;-83
2022/03/22 12:10:03;;;;;;;20.63;9.65;;;21.00;40.00;;;;;;5076761;28;20013;-80
2022/03/22 12:12:32;;;;;;;18.65;9.85;;;20.90;40.70;;;;;;5062622;28;20282;-81
2022/03/22 12:15:00;;;;;;;17.80;9.45;;;21.00;40.30;;;;;;5049867;28;20545;-83
2022/03/22 12:17:26;;;;;;;18.63;8.18;;;21.00;40.00;;;;;;5064999;28;20080;-81
2022/03/22 12:19:52;;;;;;;15.18;8.75;;;21.10;40.10;;;;;;5064685;28;20021;-83
2022/03/22 12:22:23;;;;;;;16.33;8.80;;;21.00;39.60;;;;;;5047116;28;20028;-83
2022/03/22 12:24:49;;;;;;;15.02;8.88;;;20.90;40.80;;;;;;5064203;28;20017;-85
2022/03/22 12:27:16;;;;;;;17.50;7.97;;;20.80;40.00;;;;;;5063245;28;20529;-81
2022/03/22 12:29:44;;;;;;;19.67;7.97;;;20.70;41.20;;;;;;5045914;28;20503;-83
2022/03/22 12:32:18;;;;;;;17.27;7.68;;;20.50;39.60;;;;;;5043043;28;20033;-85
2022/03/22 12:34:45;;;;;;;16.45;7.05;;;20.40;39.00;;;;;;5061151;28;20056;-83
2022/03/22 12:37:12;;;;;;;18.63;7.38;;;20.10;39.20;;;;;;5061116;28;20025;-82
2022/03/22 12:39:41;;;;;;;15.40;6.43;;;20.00;39.00;;;;;;5043592;28;20465;-83
2022/03/22 12:42:09;;;;;;;17.90;6.85;;;20.20;39.40;;;;;;5043079;28;20060;-82
2022/03/22 12:44:36;;;;;;;21.08;6.80;;;20.40;39.30;;;;;;5049981;28;20037;-84
2022/03/22 12:47:04;;;;;;;16.92;6.80;;;20.70;38.80;;;;;;5041769;28;20032;-83
2022/03/22 12:49:33;;;;;;;12.85;6.35;;;20.70;37.70;;;;;;5023133;28;20291;-84
2022/03/22 12:52:00;;;;;;;17.75;6.40;;;20.70;38.20;;;;;;5040401;28;20061;-83
2022/03/22 12:54:41;;;;;;;14.68;6.30;;;20.80;38.30;;;;;;5040528;28;20029;-82
2022/03/22 12:57:14;;;;;;;13.98;6.07;;;20.90;37.90;;;;;;5039879;28;20093;-83
2022/03/22 12:59:40;;;;;;;14.27;7.30;;;21.10;37.60;;;;;;5040243;28;20109;-83
2022/03/22 13:02:09;;;;;;;10.18;6.75;;;21.10;37.00;;;;;;5021735;28;20033;-82
2022/03/22 13:04:46;;;;;;;16.35;6.70;;;20.90;37.80;;;;;;5040223;28;20032;-85
2022/03/22 13:07:13;;;;;;;15.73;6.93;;;20.80;38.20;;;;;;5023175;28;20480;-83
2022/03/22 13:12:23;;;;;;;14.90;6.05;;;20.80;37.60;;;;;;5041241;28;20092;-83
2022/03/22 13:15:07;;;;;;;13.55;5.35;;;20.80;36.60;;;;;;5021852;28;20029;-84